sensor_id;sensor_type;location;lat;lon;timestamp;P1;durP1;ratioP1;P2;durP2;ratioP2
4420;SDS011;11824;51.178;13.546;2023-04-29T00:01:54;23.60;;;15.47;;
4420;SDS011;11824;51.178;13.546;2023-04-29T00:04:23;22.27;;;16.33;;
4420;SDS011;11824;51.178;13.546;2023-04-29T00:06:52;28.57;;;17.27;;
4420;SDS011;11824;51.178;13.546;2023-04-29T00:09:21;22.93;;;15.17;;
4420;SDS011;11824;51.178;13.546;2023-04-29T00:11:48;25.70;;;16.10;;
4420;SDS011;11824;51.178;13.546;2023-04-29T00:14:16;21.43;;;15.30;;
4420;SDS011;11824;51.178;13.546;2023-04-29T00:16:43;32.80;;;16.37;;
4420;SDS011;11824;51.178;13.546;2023-04-29T00:19:11;23.60;;;16.00;;
4420;SDS011;11824;51.178;13.546;2023-04-29T00:21:38;24.00;;;16.20;;
4420;SDS011;11824;51.178;13.546;2023-04-29T00:24:10;26.20;;;14.77;;
4420;SDS011;11824;51.178;13.546;2023-04-29T00:26:37;21.57;;;14.60;;
4420;SDS011;11824;51.178;13.546;2023-04-29T00:29:05;22.90;;;16.43;;
4420;SDS011;11824;51.178;13.546;2023-04-29T00:31:37;22.57;;;15.93;;
4420;SDS011;11824;51.178;13.546;2023-04-29T00:34:07;30.20;;;15.70;;
4420;SDS011;11824;51.178;13.546;2023-04-29T00:36:35;19.93;;;16.93;;
4420;SDS011;11824;51.178;13.546;2023-04-29T00:39:02;23.00;;;16.27;;
4420;SDS011;11824;51.178;13.546;2023-04-29T00:41:30;23.70;;;16.30;;
4420;SDS011;11824;51.178;13.546;2023-04-29T00:43:58;23.37;;;16.27;;
4420;SDS011;11824;51.178;13.546;2023-04-29T00:46:25;24.20;;;15.33;;
4420;SDS011;11824;51.178;13.546;2023-04-29T00:48:53;21.33;;;14.90;;
4420;SDS011;11824;51.178;13.546;2023-04-29T00:51:20;26.00;;;14.90;;
4420;SDS011;11824;51.178;13.546;2023-04-29T00:53:48;24.50;;;15.93;;
4420;SDS011;11824;51.178;13.546;2023-04-29T00:56:16;21.33;;;15.00;;
4420;SDS011;11824;51.178;13.546;2023-04-29T00:58:46;20.67;;;14.23;;
4420;SDS011;11824;51.178;13.546;2023-04-29T01:01:15;27.23;;;14.20;;
4420;SDS011;11824;51.178;13.546;2023-04-29T01:03:44;22.97;;;15.27;;
4420;SDS011;11824;51.178;13.546;2023-04-29T01:06:17;22.40;;;14.90;;
4420;SDS011;11824;51.178;13.546;2023-04-29T01:08:56;22.70;;;14.03;;
4420;SDS011;11824;51.178;13.546;2023-04-29T01:11:34;29.00;;;17.87;;
4420;SDS011;11824;51.178;13.546;2023-04-29T01:14:07;20.90;;;14.37;;
4420;SDS011;11824;51.178;13.546;2023-04-29T01:16:36;20.87;;;14.47;;
4420;SDS011;11824;51.178;13.546;2023-04-29T01:19:11;19.27;;;14.73;;
4420;SDS011;11824;51.178;13.546;2023-04-29T01:21:48;26.37;;;16.33;;
4420;SDS011;11824;51.178;13.546;2023-04-29T01:24:16;21.20;;;15.83;;
4420;SDS011;11824;51.178;13.546;2023-04-29T01:26:45;23.77;;;15.07;;
4420;SDS011;11824;51.178;13.546;2023-04-29T01:29:21;22.73;;;15.33;;
4420;SDS011;11824;51.178;13.546;2023-04-29T01:31:57;20.67;;;14.67;;
4420;SDS011;11824;51.178;13.546;2023-04-29T01:34:32;24.47;;;15.50;;
4420;SDS011;11824;51.178;13.546;2023-04-29T01:37:05;32.73;;;15.83;;
4420;SDS011;11824;51.178;13.546;2023-04-29T01:39:45;25.07;;;15.50;;
4420;SDS011;11824;51.178;13.546;2023-04-29T01:42:21;27.23;;;17.53;;
4420;SDS011;11824;51.178;13.546;2023-04-29T01:44:54;26.90;;;18.57;;
4420;SDS011;11824;51.178;13.546;2023-04-29T01:47:25;30.73;;;20.50;;
4420;SDS011;11824;51.178;13.546;2023-04-29T01:49:54;28.73;;;18.13;;
4420;SDS011;11824;51.178;13.546;2023-04-29T01:52:21;21.33;;;14.10;;
4420;SDS011;11824;51.178;13.546;2023-04-29T01:54:49;25.10;;;15.30;;
4420;SDS011;11824;51.178;13.546;2023-04-29T01:57:16;25.00;;;16.67;;
4420;SDS011;11824;51.178;13.546;2023-04-29T01:59:43;28.07;;;15.07;;
4420;SDS011;11824;51.178;13.546;2023-04-29T02:02:11;19.10;;;13.60;;
4420;SDS011;11824;51.178;13.546;2023-04-29T02:04:39;17.43;;;13.17;;
4420;SDS011;11824;51.178;13.546;2023-04-29T02:07:07;17.73;;;12.93;;
4420;SDS011;11824;51.178;13.546;2023-04-29T02:09:34;18.93;;;11.93;;
4420;SDS011;11824;51.178;13.546;2023-04-29T02:12:03;17.47;;;11.00;;
4420;SDS011;11824;51.178;13.546;2023-04-29T02:14:30;21.53;;;12.27;;
4420;SDS011;11824;51.178;13.546;2023-04-29T02:17:02;18.27;;;11.27;;
4420;SDS011;11824;51.178;13.546;2023-04-29T02:19:29;15.90;;;10.90;;
4420;SDS011;11824;51.178;13.546;2023-04-29T02:21:56;20.83;;;12.57;;
4420;SDS011;11824;51.178;13.546;2023-04-29T02:24:23;20.03;;;12.27;;
4420;SDS011;11824;51.178;13.546;2023-04-29T02:26:51;17.40;;;11.50;;
4420;SDS011;11824;51.178;13.546;2023-04-29T02:29:19;15.93;;;12.17;;
4420;SDS011;11824;51.178;13.546;2023-04-29T02:31:46;16.33;;;12.00;;
4420;SDS011;11824;51.178;13.546;2023-04-29T02:34:14;22.90;;;11.90;;
4420;SDS011;11824;51.178;13.546;2023-04-29T02:36:41;22.37;;;12.40;;
4420;SDS011;11824;51.178;13.546;2023-04-29T02:39:08;15.83;;;11.23;;
4420;SDS011;11824;51.178;13.546;2023-04-29T02:41:35;19.90;;;12.20;;
4420;SDS011;11824;51.178;13.546;2023-04-29T02:44:03;14.70;;;9.63;;
4420;SDS011;11824;51.178;13.546;2023-04-29T02:46:31;16.00;;;11.73;;
4420;SDS011;11824;51.178;13.546;2023-04-29T02:49:00;16.13;;;12.00;;
4420;SDS011;11824;51.178;13.546;2023-04-29T02:51:28;14.40;;;10.10;;
4420;SDS011;11824;51.178;13.546;2023-04-29T02:53:56;17.90;;;11.07;;
4420;SDS011;11824;51.178;13.546;2023-04-29T02:56:23;14.13;;;10.53;;
4420;SDS011;11824;51.178;13.546;2023-04-29T02:58:50;17.23;;;11.60;;
4420;SDS011;11824;51.178;13.546;2023-04-29T03:01:18;17.33;;;11.70;;
4420;SDS011;11824;51.178;13.546;2023-04-29T03:03:46;15.43;;;10.13;;
4420;SDS011;11824;51.178;13.546;2023-04-29T03:06:14;13.17;;;10.63;;
4420;SDS011;11824;51.178;13.546;2023-04-29T03:08:41;17.63;;;11.87;;
4420;SDS011;11824;51.178;13.546;2023-04-29T03:11:08;15.87;;;11.90;;
4420;SDS011;11824;51.178;13.546;2023-04-29T03:13:36;17.57;;;11.47;;
4420;SDS011;11824;51.178;13.546;2023-04-29T03:16:03;16.47;;;10.90;;
4420;SDS011;11824;51.178;13.546;2023-04-29T03:18:31;26.93;;;11.33;;
4420;SDS011;11824;51.178;13.546;2023-04-29T03:20:59;13.40;;;9.80;;
4420;SDS011;11824;51.178;13.546;2023-04-29T03:23:29;15.50;;;10.60;;
4420;SDS011;11824;51.178;13.546;2023-04-29T03:25:56;14.07;;;10.53;;
4420;SDS011;11824;51.178;13.546;2023-04-29T03:28:23;14.60;;;9.13;;
4420;SDS011;11824;51.178;13.546;2023-04-29T03:30:51;17.30;;;11.00;;
4420;SDS011;11824;51.178;13.546;2023-04-29T03:33:18;15.10;;;10.57;;
4420;SDS011;11824;51.178;13.546;2023-04-29T03:35:46;11.53;;;8.80;;
4420;SDS011;11824;51.178;13.546;2023-04-29T03:38:14;13.80;;;8.80;;
4420;SDS011;11824;51.178;13.546;2023-04-29T03:40:41;12.77;;;8.97;;
4420;SDS011;11824;51.178;13.546;2023-04-29T03:43:10;11.73;;;8.80;;
4420;SDS011;11824;51.178;13.546;2023-04-29T03:45:38;20.63;;;9.50;;
4420;SDS011;11824;51.178;13.546;2023-04-29T03:48:05;14.57;;;10.40;;
4420;SDS011;11824;51.178;13.546;2023-04-29T03:50:33;17.43;;;9.43;;
4420;SDS011;11824;51.178;13.546;2023-04-29T03:53:01;13.27;;;9.40;;
4420;SDS011;11824;51.178;13.546;2023-04-29T03:55:29;12.80;;;8.77;;
4420;SDS011;11824;51.178;13.546;2023-04-29T03:57:56;17.10;;;10.03;;
4420;SDS011;11824;51.178;13.546;2023-04-29T04:00:23;13.27;;;8.57;;
4420;SDS011;11824;51.178;13.546;2023-04-29T04:02:51;12.10;;;8.60;;
4420;SDS011;11824;51.178;13.546;2023-04-29T04:05:18;19.60;;;10.03;;
4420;SDS011;11824;51.178;13.546;2023-04-29T04:07:49;12.23;;;8.83;;
4420;SDS011;11824;51.178;13.546;2023-04-29T04:10:17;11.30;;;8.50;;
4420;SDS011;11824;51.178;13.546;2023-04-29T04:12:45;35.63;;;14.07;;
4420;SDS011;11824;51.178;13.546;2023-04-29T04:15:12;16.50;;;11.00;;
4420;SDS011;11824;51.178;13.546;2023-04-29T04:17:41;16.17;;;10.57;;
4420;SDS011;11824;51.178;13.546;2023-04-29T04:20:08;18.67;;;11.13;;
4420;SDS011;11824;51.178;13.546;2023-04-29T04:22:36;14.40;;;10.27;;
4420;SDS011;11824;51.178;13.546;2023-04-29T04:25:04;19.70;;;10.60;;
4420;SDS011;11824;51.178;13.546;2023-04-29T04:27:33;14.13;;;9.53;;
4420;SDS011;11824;51.178;13.546;2023-04-29T04:30:01;18.00;;;11.20;;
4420;SDS011;11824;51.178;13.546;2023-04-29T04:32:28;16.00;;;10.80;;
4420;SDS011;11824;51.178;13.546;2023-04-29T04:34:56;14.17;;;10.70;;
4420;SDS011;11824;51.178;13.546;2023-04-29T04:37:23;14.30;;;11.10;;
4420;SDS011;11824;51.178;13.546;2023-04-29T04:39:51;14.30;;;10.47;;
4420;SDS011;11824;51.178;13.546;2023-04-29T04:42:18;16.93;;;11.20;;
4420;SDS011;11824;51.178;13.546;2023-04-29T04:44:47;16.90;;;11.90;;
4420;SDS011;11824;51.178;13.546;2023-04-29T04:47:15;20.20;;;13.27;;
4420;SDS011;11824;51.178;13.546;2023-04-29T04:49:43;21.37;;;15.60;;
4420;SDS011;11824;51.178;13.546;2023-04-29T04:52:10;22.03;;;15.33;;
4420;SDS011;11824;51.178;13.546;2023-04-29T04:54:38;19.33;;;13.80;;
4420;SDS011;11824;51.178;13.546;2023-04-29T04:57:05;22.03;;;15.20;;
4420;SDS011;11824;51.178;13.546;2023-04-29T04:59:32;28.97;;;19.33;;
4420;SDS011;11824;51.178;13.546;2023-04-29T05:02:00;78.00;;;45.27;;
4420;SDS011;11824;51.178;13.546;2023-04-29T05:04:28;59.77;;;36.20;;
4420;SDS011;11824;51.178;13.546;2023-04-29T05:06:55;77.00;;;43.80;;
4420;SDS011;11824;51.178;13.546;2023-04-29T05:09:22;47.50;;;31.17;;
4420;SDS011;11824;51.178;13.546;2023-04-29T05:11:51;30.57;;;20.40;;
4420;SDS011;11824;51.178;13.546;2023-04-29T05:14:18;28.53;;;19.50;;
4420;SDS011;11824;51.178;13.546;2023-04-29T05:16:46;37.50;;;24.10;;
4420;SDS011;11824;51.178;13.546;2023-04-29T05:19:13;28.07;;;18.40;;
4420;SDS011;11824;51.178;13.546;2023-04-29T05:21:41;27.80;;;17.73;;
4420;SDS011;11824;51.178;13.546;2023-04-29T05:24:09;27.67;;;17.03;;
4420;SDS011;11824;51.178;13.546;2023-04-29T05:26:36;28.20;;;19.10;;
4420;SDS011;11824;51.178;13.546;2023-04-29T05:29:03;26.03;;;18.00;;
4420;SDS011;11824;51.178;13.546;2023-04-29T05:31:32;33.57;;;24.33;;
4420;SDS011;11824;51.178;13.546;2023-04-29T05:34:00;52.50;;;31.80;;
4420;SDS011;11824;51.178;13.546;2023-04-29T05:36:27;46.07;;;30.87;;
4420;SDS011;11824;51.178;13.546;2023-04-29T05:38:55;50.40;;;32.87;;
4420;SDS011;11824;51.178;13.546;2023-04-29T05:41:23;33.17;;;23.80;;
4420;SDS011;11824;51.178;13.546;2023-04-29T05:43:51;46.23;;;31.13;;
4420;SDS011;11824;51.178;13.546;2023-04-29T05:46:19;26.77;;;19.47;;
4420;SDS011;11824;51.178;13.546;2023-04-29T05:48:47;26.80;;;20.30;;
4420;SDS011;11824;51.178;13.546;2023-04-29T05:51:15;25.13;;;17.53;;
4420;SDS011;11824;51.178;13.546;2023-04-29T05:53:42;21.47;;;15.93;;
4420;SDS011;11824;51.178;13.546;2023-04-29T05:56:10;25.80;;;17.53;;
4420;SDS011;11824;51.178;13.546;2023-04-29T05:58:37;23.03;;;16.23;;
4420;SDS011;11824;51.178;13.546;2023-04-29T06:01:04;27.07;;;15.03;;
4420;SDS011;11824;51.178;13.546;2023-04-29T06:03:32;22.07;;;14.60;;
4420;SDS011;11824;51.178;13.546;2023-04-29T06:06:00;22.47;;;15.17;;
4420;SDS011;11824;51.178;13.546;2023-04-29T06:08:28;22.80;;;15.00;;
4420;SDS011;11824;51.178;13.546;2023-04-29T06:10:55;20.47;;;15.40;;
4420;SDS011;11824;51.178;13.546;2023-04-29T06:13:24;21.90;;;14.33;;
4420;SDS011;11824;51.178;13.546;2023-04-29T06:15:51;22.07;;;14.97;;
4420;SDS011;11824;51.178;13.546;2023-04-29T06:18:18;20.43;;;14.37;;
4420;SDS011;11824;51.178;13.546;2023-04-29T06:20:45;21.77;;;14.47;;
4420;SDS011;11824;51.178;13.546;2023-04-29T06:23:14;19.37;;;14.67;;
4420;SDS011;11824;51.178;13.546;2023-04-29T06:25:42;20.80;;;12.90;;
4420;SDS011;11824;51.178;13.546;2023-04-29T06:28:09;20.30;;;14.30;;
4420;SDS011;11824;51.178;13.546;2023-04-29T06:30:37;22.63;;;15.60;;
4420;SDS011;11824;51.178;13.546;2023-04-29T06:33:04;19.90;;;15.47;;
4420;SDS011;11824;51.178;13.546;2023-04-29T06:35:32;19.70;;;14.30;;
4420;SDS011;11824;51.178;13.546;2023-04-29T06:38:03;18.17;;;12.87;;
4420;SDS011;11824;51.178;13.546;2023-04-29T06:40:32;16.10;;;12.33;;
4420;SDS011;11824;51.178;13.546;2023-04-29T06:43:00;19.30;;;13.90;;
4420;SDS011;11824;51.178;13.546;2023-04-29T06:45:29;18.63;;;14.00;;
4420;SDS011;11824;51.178;13.546;2023-04-29T06:47:57;22.10;;;14.30;;
4420;SDS011;11824;51.178;13.546;2023-04-29T06:50:27;17.43;;;12.70;;
4420;SDS011;11824;51.178;13.546;2023-04-29T06:52:55;19.20;;;13.80;;
4420;SDS011;11824;51.178;13.546;2023-04-29T06:55:24;23.70;;;15.93;;
4420;SDS011;11824;51.178;13.546;2023-04-29T06:58:04;22.00;;;14.57;;
4420;SDS011;11824;51.178;13.546;2023-04-29T07:00:37;20.97;;;15.07;;
4420;SDS011;11824;51.178;13.546;2023-04-29T07:03:05;22.73;;;13.90;;
4420;SDS011;11824;51.178;13.546;2023-04-29T07:05:34;22.83;;;15.00;;
4420;SDS011;11824;51.178;13.546;2023-04-29T07:08:07;25.53;;;15.53;;
4420;SDS011;11824;51.178;13.546;2023-04-29T07:10:35;22.33;;;14.10;;
4420;SDS011;11824;51.178;13.546;2023-04-29T07:13:02;22.33;;;15.10;;
4420;SDS011;11824;51.178;13.546;2023-04-29T07:15:32;19.37;;;13.77;;
4420;SDS011;11824;51.178;13.546;2023-04-29T07:18:02;18.13;;;12.30;;
4420;SDS011;11824;51.178;13.546;2023-04-29T07:20:30;13.20;;;8.93;;
4420;SDS011;11824;51.178;13.546;2023-04-29T07:22:59;17.63;;;12.57;;
4420;SDS011;11824;51.178;13.546;2023-04-29T07:25:27;18.20;;;12.13;;
4420;SDS011;11824;51.178;13.546;2023-04-29T07:27:56;17.03;;;11.73;;
4420;SDS011;11824;51.178;13.546;2023-04-29T07:30:28;18.80;;;10.20;;
4420;SDS011;11824;51.178;13.546;2023-04-29T07:33:14;19.70;;;11.00;;
4420;SDS011;11824;51.178;13.546;2023-04-29T07:35:46;14.90;;;10.30;;
4420;SDS011;11824;51.178;13.546;2023-04-29T07:38:17;12.60;;;9.30;;
4420;SDS011;11824;51.178;13.546;2023-04-29T07:40:51;12.37;;;9.63;;
4420;SDS011;11824;51.178;13.546;2023-04-29T07:43:25;15.97;;;10.63;;
4420;SDS011;11824;51.178;13.546;2023-04-29T07:45:59;13.57;;;10.23;;
4420;SDS011;11824;51.178;13.546;2023-04-29T07:48:36;18.27;;;11.20;;
4420;SDS011;11824;51.178;13.546;2023-04-29T07:51:15;14.37;;;9.03;;
4420;SDS011;11824;51.178;13.546;2023-04-29T07:53:58;15.07;;;10.00;;
4420;SDS011;11824;51.178;13.546;2023-04-29T07:56:40;10.57;;;9.27;;
4420;SDS011;11824;51.178;13.546;2023-04-29T07:59:30;12.77;;;9.37;;
4420;SDS011;11824;51.178;13.546;2023-04-29T08:02:06;13.57;;;10.67;;
4420;SDS011;11824;51.178;13.546;2023-04-29T08:04:50;10.30;;;8.27;;
4420;SDS011;11824;51.178;13.546;2023-04-29T08:07:29;12.33;;;8.90;;
4420;SDS011;11824;51.178;13.546;2023-04-29T08:09:57;11.17;;;8.70;;
4420;SDS011;11824;51.178;13.546;2023-04-29T08:12:29;11.10;;;7.80;;
4420;SDS011;11824;51.178;13.546;2023-04-29T08:15:03;11.93;;;9.30;;
4420;SDS011;11824;51.178;13.546;2023-04-29T08:17:35;12.37;;;8.40;;
4420;SDS011;11824;51.178;13.546;2023-04-29T08:20:06;10.93;;;8.33;;
4420;SDS011;11824;51.178;13.546;2023-04-29T08:22:37;12.37;;;9.67;;
4420;SDS011;11824;51.178;13.546;2023-04-29T08:25:09;13.30;;;10.17;;
4420;SDS011;11824;51.178;13.546;2023-04-29T08:27:40;7.27;;;6.27;;
4420;SDS011;11824;51.178;13.546;2023-04-29T08:30:28;10.80;;;8.00;;
4420;SDS011;11824;51.178;13.546;2023-04-29T08:32:55;13.57;;;9.80;;
4420;SDS011;11824;51.178;13.546;2023-04-29T08:35:26;11.87;;;9.07;;
4420;SDS011;11824;51.178;13.546;2023-04-29T08:38:01;10.53;;;8.80;;
4420;SDS011;11824;51.178;13.546;2023-04-29T08:40:41;10.07;;;7.87;;
4420;SDS011;11824;51.178;13.546;2023-04-29T08:43:40;9.90;;;8.53;;
4420;SDS011;11824;51.178;13.546;2023-04-29T08:46:07;10.27;;;8.90;;
4420;SDS011;11824;51.178;13.546;2023-04-29T08:48:36;9.53;;;7.23;;
4420;SDS011;11824;51.178;13.546;2023-04-29T08:51:13;13.77;;;10.23;;
4420;SDS011;11824;51.178;13.546;2023-04-29T08:53:48;11.23;;;8.80;;
4420;SDS011;11824;51.178;13.546;2023-04-29T08:56:27;13.63;;;6.97;;
4420;SDS011;11824;51.178;13.546;2023-04-29T08:59:12;14.07;;;8.20;;
4420;SDS011;11824;51.178;13.546;2023-04-29T09:02:44;10.53;;;7.60;;
4420;SDS011;11824;51.178;13.546;2023-04-29T09:05:32;10.20;;;7.57;;
4420;SDS011;11824;51.178;13.546;2023-04-29T09:08:02;11.33;;;7.70;;
4420;SDS011;11824;51.178;13.546;2023-04-29T09:10:42;14.37;;;7.80;;
4420;SDS011;11824;51.178;13.546;2023-04-29T09:13:21;10.73;;;8.10;;
4420;SDS011;11824;51.178;13.546;2023-04-29T09:19:48;11.87;;;8.50;;
4420;SDS011;11824;51.178;13.546;2023-04-29T09:22:18;12.13;;;8.17;;
4420;SDS011;11824;51.178;13.546;2023-04-29T09:24:53;10.10;;;7.97;;
4420;SDS011;11824;51.178;13.546;2023-04-29T09:27:55;11.10;;;6.60;;
4420;SDS011;11824;51.178;13.546;2023-04-29T09:30:23;12.17;;;7.63;;
4420;SDS011;11824;51.178;13.546;2023-04-29T09:33:04;13.97;;;8.77;;
4420;SDS011;11824;51.178;13.546;2023-04-29T09:35:33;13.70;;;10.00;;
4420;SDS011;11824;51.178;13.546;2023-04-29T09:38:07;15.23;;;11.00;;
4420;SDS011;11824;51.178;13.546;2023-04-29T09:40:37;15.60;;;11.93;;
4420;SDS011;11824;51.178;13.546;2023-04-29T09:43:25;17.73;;;11.40;;
4420;SDS011;11824;51.178;13.546;2023-04-29T09:45:55;18.37;;;12.07;;
4420;SDS011;11824;51.178;13.546;2023-04-29T09:48:29;20.00;;;13.40;;
4420;SDS011;11824;51.178;13.546;2023-04-29T09:50:59;13.77;;;9.63;;
4420;SDS011;11824;51.178;13.546;2023-04-29T09:53:31;16.20;;;11.30;;
4420;SDS011;11824;51.178;13.546;2023-04-29T09:56:04;15.10;;;10.10;;
4420;SDS011;11824;51.178;13.546;2023-04-29T09:58:35;23.90;;;12.93;;
4420;SDS011;11824;51.178;13.546;2023-04-29T10:01:05;20.17;;;12.03;;
4420;SDS011;11824;51.178;13.546;2023-04-29T10:03:34;18.00;;;10.73;;
4420;SDS011;11824;51.178;13.546;2023-04-29T10:06:04;19.27;;;12.70;;
4420;SDS011;11824;51.178;13.546;2023-04-29T10:08:32;16.03;;;9.47;;
4420;SDS011;11824;51.178;13.546;2023-04-29T10:11:03;18.67;;;11.63;;
4420;SDS011;11824;51.178;13.546;2023-04-29T10:13:33;15.53;;;10.50;;
4420;SDS011;11824;51.178;13.546;2023-04-29T10:16:13;15.83;;;10.80;;
4420;SDS011;11824;51.178;13.546;2023-04-29T10:19:02;18.50;;;12.50;;
4420;SDS011;11824;51.178;13.546;2023-04-29T10:24:26;13.43;;;7.07;;
4420;SDS011;11824;51.178;13.546;2023-04-29T10:33:58;18.60;;;12.67;;
4420;SDS011;11824;51.178;13.546;2023-04-29T10:36:43;17.03;;;10.10;;
4420;SDS011;11824;51.178;13.546;2023-04-29T10:39:34;18.40;;;10.63;;
4420;SDS011;11824;51.178;13.546;2023-04-29T10:42:45;16.67;;;11.50;;
4420;SDS011;11824;51.178;13.546;2023-04-29T10:45:37;22.13;;;12.70;;
4420;SDS011;11824;51.178;13.546;2023-04-29T10:48:46;17.10;;;10.40;;
4420;SDS011;11824;51.178;13.546;2023-04-29T10:51:56;17.00;;;9.73;;
4420;SDS011;11824;51.178;13.546;2023-04-29T10:55:02;10.43;;;7.80;;
4420;SDS011;11824;51.178;13.546;2023-04-29T10:57:37;9.97;;;8.80;;
4420;SDS011;11824;51.178;13.546;2023-04-29T11:00:23;17.27;;;10.70;;
4420;SDS011;11824;51.178;13.546;2023-04-29T11:03:44;10.27;;;7.80;;
4420;SDS011;11824;51.178;13.546;2023-04-29T11:06:38;13.07;;;8.17;;
4420;SDS011;11824;51.178;13.546;2023-04-29T11:09:20;14.20;;;8.53;;
4420;SDS011;11824;51.178;13.546;2023-04-29T11:15:26;10.60;;;7.57;;
4420;SDS011;11824;51.178;13.546;2023-04-29T11:18:05;8.53;;;6.37;;
4420;SDS011;11824;51.178;13.546;2023-04-29T11:21:19;7.87;;;6.03;;
4420;SDS011;11824;51.178;13.546;2023-04-29T11:28:13;9.63;;;6.80;;
4420;SDS011;11824;51.178;13.546;2023-04-29T11:30:57;8.10;;;5.47;;
4420;SDS011;11824;51.178;13.546;2023-04-29T11:33:51;10.63;;;7.60;;
4420;SDS011;11824;51.178;13.546;2023-04-29T11:36:35;8.93;;;7.07;;
4420;SDS011;11824;51.178;13.546;2023-04-29T11:39:45;6.97;;;5.83;;
4420;SDS011;11824;51.178;13.546;2023-04-29T11:42:45;7.17;;;6.10;;
4420;SDS011;11824;51.178;13.546;2023-04-29T11:49:03;8.70;;;6.40;;
4420;SDS011;11824;51.178;13.546;2023-04-29T11:51:50;7.73;;;6.10;;
4420;SDS011;11824;51.178;13.546;2023-04-29T11:58:02;10.80;;;8.80;;
4420;SDS011;11824;51.178;13.546;2023-04-29T12:00:58;8.70;;;6.80;;
4420;SDS011;11824;51.178;13.546;2023-04-29T12:03:48;10.17;;;6.80;;
4420;SDS011;11824;51.178;13.546;2023-04-29T12:06:50;10.33;;;7.83;;
4420;SDS011;11824;51.178;13.546;2023-04-29T12:10:34;10.70;;;9.10;;
4420;SDS011;11824;51.178;13.546;2023-04-29T12:13:37;7.53;;;6.57;;
4420;SDS011;11824;51.178;13.546;2023-04-29T12:16:05;6.27;;;5.50;;
4420;SDS011;11824;51.178;13.546;2023-04-29T12:18:33;11.00;;;8.63;;
4420;SDS011;11824;51.178;13.546;2023-04-29T12:21:01;7.87;;;5.53;;
4420;SDS011;11824;51.178;13.546;2023-04-29T12:23:29;13.60;;;9.50;;
4420;SDS011;11824;51.178;13.546;2023-04-29T12:25:57;10.60;;;8.60;;
4420;SDS011;11824;51.178;13.546;2023-04-29T12:28:25;11.47;;;9.10;;
4420;SDS011;11824;51.178;13.546;2023-04-29T12:30:54;11.20;;;8.67;;
4420;SDS011;11824;51.178;13.546;2023-04-29T12:33:24;17.53;;;8.97;;
4420;SDS011;11824;51.178;13.546;2023-04-29T12:35:53;9.77;;;8.20;;
4420;SDS011;11824;51.178;13.546;2023-04-29T12:38:23;11.40;;;8.83;;
4420;SDS011;11824;51.178;13.546;2023-04-29T12:40:52;9.30;;;8.33;;
4420;SDS011;11824;51.178;13.546;2023-04-29T12:43:24;13.53;;;10.70;;
4420;SDS011;11824;51.178;13.546;2023-04-29T12:45:53;14.70;;;10.57;;
4420;SDS011;11824;51.178;13.546;2023-04-29T12:48:28;13.77;;;10.80;;
4420;SDS011;11824;51.178;13.546;2023-04-29T12:50:59;14.67;;;10.57;;
4420;SDS011;11824;51.178;13.546;2023-04-29T12:53:28;9.30;;;7.00;;
4420;SDS011;11824;51.178;13.546;2023-04-29T12:55:56;16.50;;;11.43;;
4420;SDS011;11824;51.178;13.546;2023-04-29T12:58:24;10.40;;;7.57;;
4420;SDS011;11824;51.178;13.546;2023-04-29T13:00:55;20.77;;;12.03;;
4420;SDS011;11824;51.178;13.546;2023-04-29T13:03:23;21.27;;;12.00;;
4420;SDS011;11824;51.178;13.546;2023-04-29T13:05:51;21.80;;;13.23;;
4420;SDS011;11824;51.178;13.546;2023-04-29T13:08:19;32.67;;;13.30;;
4420;SDS011;11824;51.178;13.546;2023-04-29T13:10:47;28.17;;;10.03;;
4420;SDS011;11824;51.178;13.546;2023-04-29T13:13:14;18.87;;;11.00;;
4420;SDS011;11824;51.178;13.546;2023-04-29T13:15:42;21.87;;;13.03;;
4420;SDS011;11824;51.178;13.546;2023-04-29T13:18:10;23.17;;;12.80;;
4420;SDS011;11824;51.178;13.546;2023-04-29T13:20:37;24.33;;;12.80;;
4420;SDS011;11824;51.178;13.546;2023-04-29T13:23:07;23.90;;;12.40;;
4420;SDS011;11824;51.178;13.546;2023-04-29T13:25:35;21.23;;;12.10;;
4420;SDS011;11824;51.178;13.546;2023-04-29T13:28:02;23.53;;;13.30;;
4420;SDS011;11824;51.178;13.546;2023-04-29T13:30:30;25.10;;;12.17;;
4420;SDS011;11824;51.178;13.546;2023-04-29T13:32:57;24.33;;;12.40;;
4420;SDS011;11824;51.178;13.546;2023-04-29T13:35:37;19.20;;;11.67;;
4420;SDS011;11824;51.178;13.546;2023-04-29T13:38:06;22.43;;;12.80;;
4420;SDS011;11824;51.178;13.546;2023-04-29T13:40:33;24.40;;;14.27;;
4420;SDS011;11824;51.178;13.546;2023-04-29T13:43:09;28.30;;;14.60;;
4420;SDS011;11824;51.178;13.546;2023-04-29T13:45:43;28.87;;;15.57;;
4420;SDS011;11824;51.178;13.546;2023-04-29T13:48:13;31.30;;;18.17;;
4420;SDS011;11824;51.178;13.546;2023-04-29T13:50:44;39.57;;;22.50;;
4420;SDS011;11824;51.178;13.546;2023-04-29T13:53:14;33.43;;;20.07;;
4420;SDS011;11824;51.178;13.546;2023-04-29T13:55:45;28.50;;;16.43;;
4420;SDS011;11824;51.178;13.546;2023-04-29T13:58:15;34.30;;;18.13;;
4420;SDS011;11824;51.178;13.546;2023-04-29T14:00:45;30.00;;;17.63;;
4420;SDS011;11824;51.178;13.546;2023-04-29T14:03:33;20.87;;;12.83;;
4420;SDS011;11824;51.178;13.546;2023-04-29T14:06:02;29.10;;;16.87;;
4420;SDS011;11824;51.178;13.546;2023-04-29T14:08:30;23.67;;;13.97;;
4420;SDS011;11824;51.178;13.546;2023-04-29T14:10:58;27.83;;;16.10;;
4420;SDS011;11824;51.178;13.546;2023-04-29T14:13:25;30.80;;;18.30;;
4420;SDS011;11824;51.178;13.546;2023-04-29T14:15:53;29.40;;;15.40;;
4420;SDS011;11824;51.178;13.546;2023-04-29T14:18:21;31.50;;;17.07;;
4420;SDS011;11824;51.178;13.546;2023-04-29T14:20:48;31.10;;;16.80;;
4420;SDS011;11824;51.178;13.546;2023-04-29T14:23:16;40.77;;;17.07;;
4420;SDS011;11824;51.178;13.546;2023-04-29T14:25:44;27.60;;;16.27;;
4420;SDS011;11824;51.178;13.546;2023-04-29T14:28:12;29.17;;;18.47;;
4420;SDS011;11824;51.178;13.546;2023-04-29T14:30:39;30.03;;;16.43;;
4420;SDS011;11824;51.178;13.546;2023-04-29T14:33:10;26.63;;;16.43;;
4420;SDS011;11824;51.178;13.546;2023-04-29T14:35:38;25.10;;;16.73;;
4420;SDS011;11824;51.178;13.546;2023-04-29T14:38:05;24.40;;;14.97;;
4420;SDS011;11824;51.178;13.546;2023-04-29T14:40:33;32.80;;;16.57;;
4420;SDS011;11824;51.178;13.546;2023-04-29T14:43:02;20.43;;;14.30;;
4420;SDS011;11824;51.178;13.546;2023-04-29T14:45:29;21.17;;;13.93;;
4420;SDS011;11824;51.178;13.546;2023-04-29T14:47:57;28.47;;;15.47;;
4420;SDS011;11824;51.178;13.546;2023-04-29T14:50:25;26.10;;;17.53;;
4420;SDS011;11824;51.178;13.546;2023-04-29T14:52:53;24.50;;;16.10;;
4420;SDS011;11824;51.178;13.546;2023-04-29T14:55:22;25.37;;;16.83;;
4420;SDS011;11824;51.178;13.546;2023-04-29T14:57:50;25.47;;;15.33;;
4420;SDS011;11824;51.178;13.546;2023-04-29T15:00:17;20.50;;;14.30;;
4420;SDS011;11824;51.178;13.546;2023-04-29T15:02:46;25.93;;;17.53;;
4420;SDS011;11824;51.178;13.546;2023-04-29T15:05:15;23.93;;;16.23;;
4420;SDS011;11824;51.178;13.546;2023-04-29T15:07:43;27.43;;;18.63;;
4420;SDS011;11824;51.178;13.546;2023-04-29T15:10:11;28.97;;;16.27;;
4420;SDS011;11824;51.178;13.546;2023-04-29T15:12:38;31.63;;;18.60;;
4420;SDS011;11824;51.178;13.546;2023-04-29T15:15:07;25.10;;;16.30;;
4420;SDS011;11824;51.178;13.546;2023-04-29T15:17:35;24.50;;;16.67;;
4420;SDS011;11824;51.178;13.546;2023-04-29T15:20:03;27.53;;;17.70;;
4420;SDS011;11824;51.178;13.546;2023-04-29T15:22:32;36.73;;;19.20;;
4420;SDS011;11824;51.178;13.546;2023-04-29T15:24:59;29.50;;;17.53;;